Archer, Idaho
Current Conditions -  °F | °C
As of 8:53 AM on Monday 22 Dec 2014 (Local Time) from KRXE Reporting Station
Clear Clear  
Wind Chill: 21°   Ceiling: Unl
Heat Index: 29°   Visibility: 10mi
Dew Point: 29°   Wind: 8mph
Humidity: 100%   Direction: 190°S
Pressure: 29.92"   Gusts: NA
Location:  43.7568°N, 111.624°W
Report Text: KRXE 221553Z AUTO 19007KT 10SM CLR M02/M02 A2992 RMK AO2 SLP156 T10171017
Loading
Personal Weather Stations






























Interactive Weather Map New forecast layout! Learn more

10-Day Weather Forecast

Advertisements
Track Severe Weather on mobile